Time;durP1;ratioP1;P1;durP2;ratioP2;P2;SDS_P1;SDS_P2;PMS_P1;PMS_P2;Temp;Humidity;BMP_temperature;BMP_pressure;BME280_temperature;BME280_humidity;BME280_pressure;Samples;Min_cycle;Max_cycle;Signal;HPM_P1;HPM_P2
2022/10/14 00:01:15;;;;;;;5.90;1.70;;;;;;;19.06;40.01;102374.73;1581113;89;21119;-50
2022/10/14 00:03:43;;;;;;;7.97;1.65;;;;;;;19.07;40.15;102372.52;1581296;89;21109;-50
2022/10/14 00:06:13;;;;;;;2.77;1.42;;;;;;;19.07;40.22;102374.29;1572911;90;21063;-49
2022/10/14 00:08:40;;;;;;;3.75;1.65;;;;;;;19.07;40.13;102371.20;1569097;90;21128;-53
2022/10/14 00:11:14;;;;;;;2.95;1.32;;;;;;;19.08;40.11;102371.59;1571137;91;21618;-49
2022/10/14 00:13:41;;;;;;;6.05;1.77;;;;;;;19.07;39.91;102370.33;1573437;90;21115;-50
2022/10/14 00:16:28;;;;;;;6.17;1.60;;;;;;;19.06;39.80;102372.09;1573302;90;21087;-50
2022/10/14 00:18:56;;;;;;;4.08;1.52;;;;;;;19.07;39.88;102372.97;1558558;90;21620;-49
2022/10/14 00:21:26;;;;;;;4.83;1.75;;;;;;;19.07;39.68;102373.84;1573509;90;21096;-49
2022/10/14 00:23:53;;;;;;;4.10;1.87;;;;;;;19.07;39.69;102372.97;1603189;87;21141;-52
2022/10/14 00:26:27;;;;;;;3.22;1.30;;;;;;;19.08;39.83;102375.55;1611120;87;21008;-52
2022/10/14 00:28:54;;;;;;;4.05;1.67;;;;;;;19.07;39.95;102372.52;1571654;91;21101;-51
2022/10/14 00:31:21;;;;;;;3.65;1.52;;;;;;;19.07;39.96;102367.24;1575512;90;21077;-56
2022/10/14 00:33:48;;;;;;;3.15;1.47;;;;;;;19.08;40.02;102366.80;1575487;90;21123;-50
2022/10/14 00:36:17;;;;;;;4.85;1.67;;;;;;;19.08;40.04;102363.67;1626856;87;21105;-52
2022/10/14 00:38:44;;;;;;;3.05;1.50;;;;;;;19.08;40.22;102363.67;1637420;85;20998;-53
2022/10/14 00:41:18;;;;;;;3.17;1.37;;;;;;;19.08;40.36;102353.13;1632264;85;21553;-55
2022/10/14 00:44:06;;;;;;;4.72;1.30;;;;;;;19.08;40.08;102359.72;1644300;85;21103;-49
2022/10/14 00:46:42;;;;;;;4.28;1.17;;;;;;;19.08;40.22;102351.80;1643207;85;21079;-50
2022/10/14 00:49:22;;;;;;;3.62;1.72;;;;;;;19.08;40.36;102353.13;1643986;85;21063;-48
2022/10/14 00:51:52;;;;;;;4.20;1.80;;;;;;;19.08;40.13;102345.69;1627415;85;21126;-49
2022/10/14 00:54:21;;;;;;;3.70;1.67;;;;;;;19.07;40.19;102348.77;1640250;85;21117;-50
2022/10/14 00:56:49;;;;;;;6.20;1.50;;;;;;;19.06;40.12;102341.75;1640177;85;21082;-52
2022/10/14 00:59:16;;;;;;;5.42;1.20;;;;;;;19.05;39.77;102344.00;1639113;85;21547;-50
2022/10/14 01:01:42;;;;;;;4.30;1.52;;;;;;;19.05;39.65;102345.32;1637815;85;21083;-49
2022/10/14 01:04:10;;;;;;;7.65;1.70;;;;;;;19.04;39.49;102344.90;1639269;85;21075;-50
2022/10/14 01:07:17;;;;;;;4.67;1.55;;;;;;;19.04;39.39;102347.53;1635419;87;21058;-49
2022/10/14 01:10:01;;;;;;;3.35;1.30;;;;;;;19.04;39.17;102351.49;1615325;87;21140;-51
2022/10/14 01:12:41;;;;;;;6.47;1.70;;;;;;;19.03;38.85;102344.51;1508664;93;21045;-49
2022/10/14 01:15:32;;;;;;;4.03;1.30;;;;;;;19.03;38.96;102352.87;1509762;93;21125;-51
2022/10/14 01:18:49;;;;;;;6.28;1.50;;;;;;;19.02;39.07;102347.20;1502564;95;21103;-50
2022/10/14 01:21:30;;;;;;;5.03;2.30;;;;;;;19.01;38.87;102350.29;1493244;94;21219;-49
2022/10/14 01:24:23;;;;;;;3.47;1.65;;;;;;;18.98;39.14;102351.69;1493374;94;21115;-48
2022/10/14 01:27:26;;;;;;;3.62;1.70;;;;;;;18.98;40.58;102345.58;1459584;97;21124;-49
2022/10/14 01:30:24;;;;;;;5.92;1.80;;;;;;;18.97;41.77;102349.98;1488842;95;21103;-52
2022/10/14 01:33:24;;;;;;;8.10;2.17;;;;;;;18.95;42.34;102347.84;1415492;101;21127;-51
2022/10/14 01:36:19;;;;;;;5.00;2.08;;;;;;;18.94;42.34;102342.14;1402126;102;21141;-50
2022/10/14 01:39:04;;;;;;;4.50;1.70;;;;;;;18.91;42.43;102344.89;1414890;101;21086;-50
2022/10/14 01:41:38;;;;;;;5.17;1.55;;;;;;;18.87;41.96;102343.27;1424209;100;21144;-56
2022/10/14 01:44:09;;;;;;;7.70;2.17;;;;;;;18.86;41.82;102341.52;1414520;101;21222;-52
2022/10/14 01:46:40;;;;;;;4.87;1.75;;;;;;;18.85;41.51;102336.30;1422417;100;21124;-50
2022/10/14 01:49:10;;;;;;;5.03;1.75;;;;;;;18.83;41.28;102337.67;1444689;97;21051;-55
2022/10/14 01:51:47;;;;;;;4.53;1.80;;;;;;;18.82;41.05;102339.89;1484388;95;21138;-50
2022/10/14 01:54:20;;;;;;;5.58;2.02;;;;;;;18.82;40.97;102341.21;1476872;93;21069;-50
2022/10/14 01:56:47;;;;;;;4.20;1.92;;;;;;;18.79;41.12;102340.00;1445213;98;21635;-51
2022/10/14 01:59:15;;;;;;;4.45;1.92;;;;;;;18.80;41.16;102346.12;1451146;98;21634;-52
2022/10/14 02:01:42;;;;;;;3.20;1.40;;;;;;;18.79;40.87;102340.00;1451649;98;21149;-50
2022/10/14 02:04:16;;;;;;;5.92;1.60;;;;;;;18.77;40.75;102332.59;1458938;97;21175;-50
2022/10/14 02:06:51;;;;;;;4.87;1.75;;;;;;;18.77;40.75;102329.09;1476159;97;21078;-49
2022/10/14 02:09:56;;;;;;;4.00;1.60;;;;;;;18.76;40.89;102329.53;1428691;97;21708;-51
2022/10/14 02:12:35;;;;;;;4.42;1.72;;;;;;;18.75;40.74;102334.86;1401913;100;21126;-49
2022/10/14 02:15:43;;;;;;;3.02;1.75;;;;;;;18.75;40.84;102343.64;1401340;102;21592;-50
2022/10/14 02:18:31;;;;;;;3.12;1.25;;;;;;;18.74;40.99;102338.39;1395828;101;21124;-49
2022/10/14 02:21:04;;;;;;;3.42;1.40;;;;;;;18.71;40.95;102339.38;1397348;102;21203;-50
2022/10/14 02:23:42;;;;;;;4.83;1.77;;;;;;;18.69;40.98;102345.16;1415929;101;21137;-50
2022/10/14 02:26:09;;;;;;;3.30;1.55;;;;;;;18.68;41.06;102352.64;1399732;102;21141;-50
2022/10/14 02:28:36;;;;;;;2.55;1.60;;;;;;;18.66;40.82;102346.55;1399794;102;21617;-54
2022/10/14 02:31:09;;;;;;;3.90;1.87;;;;;;;18.64;40.77;102345.73;1399913;102;21217;-50
2022/10/14 02:33:40;;;;;;;4.28;1.80;;;;;;;18.63;40.66;102346.62;1399750;102;21157;-49
2022/10/14 02:36:10;;;;;;;4.70;1.60;;;;;;;18.61;40.84;102350.62;1399666;102;21585;-49
2022/10/14 02:38:38;;;;;;;5.05;1.77;;;;;;;18.59;40.70;102348.50;1399630;101;21126;-50
2022/10/14 02:41:07;;;;;;;3.87;1.50;;;;;;;18.58;41.15;102353.83;1399845;102;21109;-53
2022/10/14 02:43:34;;;;;;;2.60;1.50;;;;;;;18.57;41.54;102357.35;1400577;102;21159;-55
2022/10/14 02:46:03;;;;;;;4.22;2.12;;;;;;;18.55;41.59;102352.13;1402089;101;21583;-49
2022/10/14 02:48:30;;;;;;;5.00;1.80;;;;;;;18.53;41.66;102348.68;1399478;102;21637;-49
2022/10/14 02:50:57;;;;;;;3.55;1.60;;;;;;;18.52;41.39;102350.05;1412950;100;21136;-52
2022/10/14 02:53:25;;;;;;;5.33;1.75;;;;;;;18.48;41.28;102348.41;1442882;96;21198;-49
2022/10/14 02:55:53;;;;;;;4.40;1.70;;;;;;;18.46;41.37;102346.28;1469452;97;21133;-50
2022/10/14 02:58:19;;;;;;;7.87;2.67;;;;;;;18.44;41.33;102350.73;1469434;96;21161;-49
2022/10/14 03:00:49;;;;;;;2.92;1.70;;;;;;;18.41;41.52;102346.81;1468907;96;21124;-51
2022/10/14 03:03:16;;;;;;;3.77;1.70;;;;;;;18.40;41.55;102350.38;1469131;96;21577;-49
2022/10/14 03:05:43;;;;;;;2.47;1.65;;;;;;;18.39;41.56;102349.95;1487309;94;21163;-52
2022/10/14 03:08:15;;;;;;;2.90;1.65;;;;;;;18.37;41.67;102347.81;1630858;83;21018;-50
2022/10/14 03:10:46;;;;;;;4.35;1.62;;;;;;;18.35;41.72;102341.73;1703165;82;21014;-49
2022/10/14 03:13:14;;;;;;;4.72;2.20;;;;;;;18.35;41.77;102339.09;1701979;82;21002;-50
2022/10/14 03:15:44;;;;;;;3.22;1.90;;;;;;;18.33;42.03;102338.27;1703201;82;21053;-49
2022/10/14 03:18:11;;;;;;;4.25;1.92;;;;;;;18.33;42.37;102336.95;1700515;83;21609;-50
2022/10/14 03:20:39;;;;;;;7.92;2.52;;;;;;;18.31;42.30;102333.50;1699799;83;21074;-50
2022/10/14 03:23:07;;;;;;;3.87;1.82;;;;;;;18.31;42.04;102332.19;1701868;83;21479;-50
2022/10/14 03:25:37;;;;;;;5.45;2.05;;;;;;;18.30;41.95;102334.42;1709744;82;20991;-50
2022/10/14 03:28:06;;;;;;;3.45;1.45;;;;;;;18.29;42.12;102335.31;1704997;82;21066;-54
2022/10/14 03:30:40;;;;;;;6.03;2.00;;;;;;;18.28;42.35;102328.34;1641936;87;21098;-49
2022/10/14 03:33:09;;;;;;;2.52;1.50;;;;;;;18.28;42.34;102330.97;1638696;87;21047;-49
2022/10/14 03:35:37;;;;;;;3.98;1.95;;;;;;;18.27;42.37;102329.23;1611721;89;21504;-51
2022/10/14 03:38:05;;;;;;;4.10;2.10;;;;;;;18.26;42.51;102327.52;1621031;87;21058;-50
2022/10/14 03:40:34;;;;;;;4.33;1.90;;;;;;;18.26;42.61;102330.16;1617621;87;21011;-52
2022/10/14 03:43:03;;;;;;;6.05;2.00;;;;;;;18.25;42.35;102323.14;1574760;90;21094;-51
2022/10/14 03:45:32;;;;;;;4.15;1.95;;;;;;;18.25;42.11;102320.50;1550994;92;21677;-49
2022/10/14 03:47:58;;;;;;;4.05;1.55;;;;;;;18.25;42.19;102323.14;1578293;91;21107;-49
2022/10/14 03:50:27;;;;;;;3.00;1.80;;;;;;;18.23;42.22;102324.95;1615098;89;21054;-51
2022/10/14 03:52:54;;;;;;;3.75;1.77;;;;;;;18.22;42.18;102320.12;1617837;89;21022;-50
2022/10/14 03:55:23;;;;;;;2.95;1.55;;;;;;;18.23;42.40;102323.64;1581841;90;21151;-53
2022/10/14 03:57:50;;;;;;;5.47;1.82;;;;;;;18.23;42.16;102319.69;1545495;93;21143;-49
2022/10/14 04:00:17;;;;;;;4.95;1.55;;;;;;;18.23;42.19;102324.95;1579766;89;21551;-50
2022/10/14 04:02:46;;;;;;;5.08;1.85;;;;;;;18.21;42.01;102318.86;1551095;92;21175;-49
2022/10/14 04:05:15;;;;;;;3.17;1.65;;;;;;;18.21;41.72;102318.86;1579388;90;21574;-50
2022/10/14 04:07:43;;;;;;;4.28;1.70;;;;;;;18.21;41.55;102318.86;1608758;89;21085;-49
2022/10/14 04:10:10;;;;;;;6.55;1.85;;;;;;;18.19;41.84;102316.73;1608862;89;21137;-51
2022/10/14 04:12:39;;;;;;;4.87;2.05;;;;;;;18.19;41.85;102316.73;1616529;88;21117;-50
2022/10/14 04:15:10;;;;;;;4.25;1.70;;;;;;;18.19;41.96;102318.05;1631977;88;21092;-49
2022/10/14 04:17:39;;;;;;;4.20;1.80;;;;;;;18.18;42.20;102320.25;1629846;88;21068;-50
2022/10/14 04:20:09;;;;;;;2.60;1.50;;;;;;;18.15;41.79;102318.59;1629499;88;21569;-50
2022/10/14 04:22:38;;;;;;;3.70;1.77;;;;;;;18.15;41.68;102326.95;1611337;88;21052;-50
2022/10/14 04:25:07;;;;;;;4.50;1.80;;;;;;;18.14;41.61;102325.20;1632717;88;21063;-54
2022/10/14 04:27:34;;;;;;;7.17;2.12;;;;;;;18.12;41.86;102332.28;1684098;82;20978;-49
2022/10/14 04:30:04;;;;;;;5.85;2.42;;;;;;;18.11;41.97;102331.45;1705129;82;21037;-51
2022/10/14 04:32:33;;;;;;;3.98;1.52;;;;;;;18.10;41.91;102331.02;1707076;82;21090;-50
2022/10/14 04:35:01;;;;;;;4.40;1.52;;;;;;;18.10;41.79;102327.52;1703753;82;21104;-50
2022/10/14 04:37:29;;;;;;;2.90;1.65;;;;;;;18.08;41.14;102328.01;1703496;82;21089;-50
2022/10/14 04:39:58;;;;;;;3.85;1.50;;;;;;;18.07;40.89;102331.56;1711749;81;21652;-53
2022/10/14 04:42:25;;;;;;;6.40;1.40;;;;;;;18.05;40.79;102330.74;1702902;82;20966;-49
2022/10/14 04:44:54;;;;;;;4.67;1.75;;;;;;;18.04;40.72;102335.59;1704473;82;21526;-50
2022/10/14 04:47:23;;;;;;;2.83;1.70;;;;;;;18.04;40.57;102330.31;1695071;82;21073;-50
2022/10/14 04:49:52;;;;;;;5.12;1.80;;;;;;;18.05;40.46;102332.06;1700979;82;21037;-50
2022/10/14 04:52:20;;;;;;;3.08;1.50;;;;;;;18.03;40.43;102326.84;1696266;82;21658;-49
2022/10/14 04:54:51;;;;;;;;;;;;;;;18.03;40.43;102332.56;1708823;82;21365;-47
2022/10/14 04:57:20;;;;;;;3.83;1.75;;;;;;;18.03;40.48;102331.24;1703934;82;20101;-51
2022/10/14 04:59:47;;;;;;;2.62;1.27;;;;;;;18.02;40.43;102329.50;1699213;84;21032;-47
2022/10/14 05:02:14;;;;;;;2.25;1.25;;;;;;;18.03;40.61;102335.19;1705943;82;21506;-53
2022/10/14 05:04:43;;;;;;;4.03;1.45;;;;;;;18.03;40.79;102327.29;1699957;82;21068;-48
2022/10/14 05:07:09;;;;;;;2.25;1.00;;;;;;;18.03;41.01;102325.97;1702842;82;21688;-48
2022/10/14 05:09:37;;;;;;;2.58;1.20;;;;;;;18.03;40.74;102324.66;1703278;82;21050;-47
2022/10/14 05:12:06;;;;;;;3.27;1.27;;;;;;;18.03;40.72;102325.53;1694790;83;21093;-53
2022/10/14 05:14:36;;;;;;;9.65;1.60;;;;;;;18.04;41.02;102321.10;1703113;82;21538;-56
2022/10/14 05:17:08;;;;;;;2.22;1.25;;;;;;;18.05;40.97;102326.80;1641893;87;21066;-51
2022/10/14 05:19:35;;;;;;;2.35;1.12;;;;;;;18.05;41.00;102325.48;1642086;87;21078;-50
2022/10/14 05:22:03;;;;;;;2.27;1.20;;;;;;;18.05;41.10;102329.43;1642232;87;21087;-48
2022/10/14 05:24:34;;;;;;;2.22;1.27;;;;;;;18.06;41.11;102335.96;1638744;87;21106;-49
2022/10/14 05:27:01;;;;;;;2.52;1.32;;;;;;;18.07;41.12;102334.20;1641958;87;21102;-47
2022/10/14 05:29:29;;;;;;;3.22;1.27;;;;;;;18.08;41.12;102333.27;1630392;87;21076;-48
2022/10/14 05:31:56;;;;;;;2.95;1.47;;;;;;;18.09;40.82;102335.02;1641878;87;21086;-52
2022/10/14 05:34:27;;;;;;;3.67;1.40;;;;;;;18.10;40.78;102339.37;1616511;88;21078;-52
2022/10/14 05:36:55;;;;;;;3.17;1.30;;;;;;;18.11;41.06;102335.84;1578306;89;21074;-50
2022/10/14 05:39:24;;;;;;;3.00;1.20;;;;;;;18.12;40.84;102340.19;1555917;91;21122;-47
2022/10/14 05:41:51;;;;;;;3.08;1.42;;;;;;;18.14;40.52;102348.91;1584213;90;21070;-49
2022/10/14 05:44:20;;;;;;;6.55;1.95;;;;;;;18.16;40.32;102348.41;1558176;92;21065;-48
2022/10/14 05:46:48;;;;;;;2.27;1.47;;;;;;;18.17;40.89;102351.48;1583558;90;21058;-48
2022/10/14 05:49:18;;;;;;;4.05;1.70;;;;;;;18.20;41.02;102352.69;1583546;90;21112;-48
2022/10/14 05:51:45;;;;;;;4.28;2.17;;;;;;;18.22;41.29;102346.48;1583654;91;21595;-53
2022/10/14 05:54:14;;;;;;;7.55;3.58;;;;;;;18.26;41.33;102353.87;1580570;91;21153;-48
2022/10/14 05:56:42;;;;;;;4.58;2.60;;;;;;;18.30;40.89;102353.71;1583689;91;21051;-51
2022/10/14 05:59:10;;;;;;;4.58;2.98;;;;;;;18.36;40.35;102354.02;1558170;92;21094;-48
2022/10/14 06:01:37;;;;;;;5.50;2.27;;;;;;;18.47;39.95;102358.53;1583956;90;21586;-49
2022/10/14 06:04:05;;;;;;;7.70;2.72;;;;;;;18.63;39.65;102365.08;1558275;92;21069;-50
2022/10/14 06:06:33;;;;;;;6.00;1.75;;;;;;;18.79;39.11;102371.66;1585964;90;21078;-48
2022/10/14 06:09:00;;;;;;;7.10;2.20;;;;;;;18.93;38.92;102363.30;1621447;88;21119;-48
2022/10/14 06:11:27;;;;;;;4.25;1.60;;;;;;;19.02;38.48;102365.67;1623550;87;21129;-47
2022/10/14 06:13:54;;;;;;;3.12;1.27;;;;;;;19.08;38.08;102379.50;1679344;82;21038;-48
2022/10/14 06:16:22;;;;;;;5.60;2.30;;;;;;;19.14;38.17;102367.92;1706546;83;21046;-48
2022/10/14 06:18:50;;;;;;;5.33;1.47;;;;;;;19.20;37.84;102370.36;1711141;82;21016;-49
2022/10/14 06:21:18;;;;;;;4.92;1.40;;;;;;;19.24;37.25;102364.07;1711403;82;21046;-52
2022/10/14 06:23:45;;;;;;;3.60;1.55;;;;;;;19.26;37.02;102363.12;1708448;82;21566;-55
2022/10/14 06:26:11;;;;;;;2.70;1.20;;;;;;;19.27;36.97;102363.95;1708505;82;21061;-48
2022/10/14 06:28:38;;;;;;;3.02;1.22;;;;;;;19.27;36.94;102370.10;1707982;82;21022;-48
2022/10/14 06:31:05;;;;;;;4.28;1.25;;;;;;;19.26;37.02;102368.39;1708483;82;21042;-52
2022/10/14 06:33:32;;;;;;;4.83;1.55;;;;;;;19.26;36.75;102373.67;1709085;82;21101;-50
2022/10/14 06:36:02;;;;;;;3.52;1.57;;;;;;;19.29;36.94;102378.84;1705147;82;21010;-48
2022/10/14 06:38:29;;;;;;;2.92;1.27;;;;;;;19.34;36.73;102378.28;1711520;81;21053;-48
2022/10/14 06:40:56;;;;;;;2.47;1.30;;;;;;;19.40;36.17;102375.44;1710262;82;21014;-47
2022/10/14 06:43:22;;;;;;;5.58;1.40;;;;;;;19.44;35.93;102381.02;1708158;83;21557;-49
2022/10/14 06:45:49;;;;;;;4.33;1.20;;;;;;;19.48;35.67;102383.09;1698435;82;21015;-48
2022/10/14 06:48:17;;;;;;;1.98;1.10;;;;;;;19.49;35.30;102373.80;1711377;82;21010;-49
2022/10/14 06:50:44;;;;;;;1.90;1.00;;;;;;;19.49;35.54;102379.08;1708804;82;21054;-47
2022/10/14 06:53:10;;;;;;;2.33;1.35;;;;;;;19.51;35.95;102375.09;1709680;82;21073;-48
2022/10/14 06:55:38;;;;;;;4.33;1.10;;;;;;;19.53;35.75;102376.35;1710286;82;21494;-49
2022/10/14 06:58:05;;;;;;;3.02;1.20;;;;;;;19.54;35.65;102375.45;1711393;82;20998;-53
2022/10/14 07:00:32;;;;;;;3.05;1.45;;;;;;;19.56;35.38;102384.19;1711293;82;21066;-49
2022/10/14 07:02:59;;;;;;;7.35;1.50;;;;;;;19.56;35.50;102375.78;1714745;82;21542;-51
2022/10/14 07:05:26;;;;;;;4.12;1.50;;;;;;;19.57;35.21;102381.94;1708101;82;21069;-52
2022/10/14 07:07:53;;;;;;;2.15;1.00;;;;;;;19.57;35.20;102387.22;1703836;82;21081;-48
2022/10/14 07:10:19;;;;;;;4.70;1.10;;;;;;;19.57;35.20;102391.17;1703614;82;21042;-48
2022/10/14 07:12:47;;;;;;;2.95;1.20;;;;;;;19.57;35.38;102378.84;1699271;83;21050;-51
2022/10/14 07:15:14;;;;;;;3.52;1.20;;;;;;;19.57;35.39;102385.45;1705754;83;21081;-51
2022/10/14 07:17:42;;;;;;;3.15;1.25;;;;;;;19.58;35.51;102378.39;1693856;82;21490;-48
2022/10/14 07:20:11;;;;;;;3.92;1.27;;;;;;;19.58;35.24;102381.03;1706133;82;21019;-48
2022/10/14 07:22:39;;;;;;;3.25;1.20;;;;;;;19.58;35.18;102378.39;1705888;82;21086;-49
2022/10/14 07:25:08;;;;;;;2.30;1.12;;;;;;;19.60;34.94;102381.84;1703279;82;21054;-53
2022/10/14 07:27:36;;;;;;;2.65;1.50;;;;;;;19.61;34.86;102377.83;1704320;82;21553;-51
2022/10/14 07:30:05;;;;;;;4.72;1.20;;;;;;;19.63;34.90;102386.56;1714351;82;21065;-48
2022/10/14 07:32:38;;;;;;;1.53;1.00;;;;;;;19.64;35.15;102384.79;1723495;82;21514;-51
2022/10/14 07:35:07;;;;;;;3.33;1.15;;;;;;;19.65;35.16;102387.38;1713318;81;21014;-51
2022/10/14 07:37:33;;;;;;;3.17;1.12;;;;;;;19.67;34.58;102388.63;1720358;82;21505;-51
2022/10/14 07:40:00;;;;;;;3.80;1.35;;;;;;;19.68;34.48;102383.77;1721500;80;20983;-49
2022/10/14 07:42:27;;;;;;;1.65;1.00;;;;;;;19.67;33.92;102385.54;1726483;82;21065;-50
2022/10/14 07:44:56;;;;;;;3.77;1.20;;;;;;;19.67;33.77;102382.03;1704994;82;21018;-48
2022/10/14 07:47:23;;;;;;;2.80;1.40;;;;;;;19.68;34.19;102385.09;1709150;82;21553;-50
2022/10/14 07:49:50;;;;;;;0.93;0.82;;;;;;;19.68;33.95;102381.12;1716161;82;21021;-49
2022/10/14 07:52:18;;;;;;;2.52;0.95;;;;;;;19.69;33.90;102380.20;1721312;81;20974;-49
2022/10/14 07:54:45;;;;;;;2.55;1.10;;;;;;;19.69;33.90;102382.84;1709542;82;21074;-49
2022/10/14 07:57:12;;;;;;;3.83;0.90;;;;;;;19.71;33.89;102381.01;1721456;82;21066;-52
2022/10/14 07:59:39;;;;;;;1.80;0.90;;;;;;;19.72;34.28;102381.43;1724357;82;21026;-52
2022/10/14 08:02:05;;;;;;;2.77;1.00;;;;;;;19.74;34.18;102373.00;1707304;82;21558;-49
2022/10/14 08:04:32;;;;;;;1.80;0.90;;;;;;;19.75;34.31;102382.63;1728394;82;21043;-53
2022/10/14 08:06:58;;;;;;;3.98;1.27;;;;;;;19.78;34.47;102379.90;1718677;82;21011;-49
2022/10/14 08:09:25;;;;;;;2.55;0.93;;;;;;;19.81;34.25;102377.14;1705179;82;21026;-48
2022/10/14 08:11:53;;;;;;;2.45;1.05;;;;;;;19.84;34.45;102377.05;1724234;82;21534;-49
2022/10/14 08:14:19;;;;;;;3.12;1.30;;;;;;;19.90;34.70;102379.47;1722338;81;21026;-53
2022/10/14 08:16:46;;;;;;;2.35;0.95;;;;;;;19.92;34.39;102372.36;1732556;82;21618;-48
2022/10/14 08:19:13;;;;;;;3.20;1.00;;;;;;;19.95;34.47;102374.88;1713142;81;21077;-49
2022/10/14 08:21:40;;;;;;;4.47;1.10;;;;;;;19.98;34.44;102369.50;1724381;82;21094;-49
2022/10/14 08:24:07;;;;;;;5.40;2.90;;;;;;;20.01;34.78;102366.77;1712191;82;21036;-51
2022/10/14 08:26:41;;;;;;;1.82;1.00;;;;;;;20.03;34.89;102368.89;1727828;82;21511;-50
2022/10/14 08:29:12;;;;;;;2.22;1.07;;;;;;;20.03;34.40;102365.77;1713036;82;21018;-49
2022/10/14 08:31:38;;;;;;;3.10;1.35;;;;;;;20.05;34.61;102365.73;1726267;81;21038;-51
2022/10/14 08:34:05;;;;;;;2.40;0.85;;;;;;;20.06;34.84;102364.35;1732263;82;21050;-50
2022/10/14 08:36:32;;;;;;;2.65;1.65;;;;;;;20.11;34.48;102368.16;1712732;82;21506;-50
2022/10/14 08:38:58;;;;;;;1.20;0.85;;;;;;;20.14;34.45;102368.91;1718528;81;21574;-51
2022/10/14 08:41:52;;;;;;;5.95;1.20;;;;;;;20.17;34.99;102370.58;1719169;82;21010;-49
2022/10/14 08:44:34;;;;;;;2.42;0.75;;;;;;;20.20;34.09;102362.55;1716627;82;21026;-50
2022/10/14 08:47:02;;;;;;;1.50;0.70;;;;;;;20.25;33.19;102360.62;1735939;82;21102;-47
2022/10/14 08:50:00;;;;;;;3.20;0.80;;;;;;;20.30;32.85;102359.14;1707549;82;21019;-51
2022/10/14 08:52:44;;;;;;;1.98;0.65;;;;;;;20.31;32.53;102360.39;1724994;82;20999;-51
2022/10/14 08:55:39;;;;;;;3.30;0.72;;;;;;;20.35;32.64;102361.14;1715699;82;21127;-52
2022/10/14 08:58:15;;;;;;;0.90;0.80;;;;;;;20.35;32.48;102362.01;1710499;82;21022;-51
2022/10/14 09:00:42;;;;;;;2.30;0.65;;;;;;;20.37;32.20;102360.17;1713274;82;20986;-55
2022/10/14 09:03:31;;;;;;;1.75;0.50;;;;;;;20.40;31.96;102356.55;1669558;85;21041;-50
2022/10/14 09:06:00;;;;;;;2.05;0.60;;;;;;;20.42;31.24;102352.94;1683988;83;21464;-52
2022/10/14 09:08:41;;;;;;;3.12;0.60;;;;;;;20.43;31.42;102357.30;1670284;83;21049;-51
2022/10/14 09:11:19;;;;;;;0.87;0.60;;;;;;;20.46;31.79;102355.87;1665769;85;21053;-50
2022/10/14 09:13:51;;;;;;;1.77;0.70;;;;;;;20.47;32.04;102354.94;1594275;89;21468;-50
2022/10/14 09:16:30;;;;;;;0.95;0.80;;;;;;;20.53;31.36;102361.77;1599350;89;21089;-53
2022/10/14 09:19:00;;;;;;;;;;;;;;;20.58;31.80;102364.66;1551420;91;21057;-50
2022/10/14 09:21:37;;;;;;;0.40;0.40;;;;;;;20.61;31.46;102361.05;1552080;91;20120;-50
2022/10/14 09:24:22;;;;;;;2.25;0.90;;;;;;;20.62;31.11;102364.08;1548401;91;21036;-54
2022/10/14 09:26:55;;;;;;;2.33;0.72;;;;;;;20.64;30.63;102357.81;1493715;95;21121;-50
2022/10/14 09:29:45;;;;;;;1.25;0.70;;;;;;;20.67;30.59;102361.65;1494957;95;21053;-51
2022/10/14 09:32:19;;;;;;;2.37;0.93;;;;;;;20.70;30.32;102365.52;1493092;95;21117;-49
2022/10/14 09:34:48;;;;;;;1.85;0.60;;;;;;;20.73;29.84;102366.70;1481288;95;21093;-52
2022/10/14 09:37:35;;;;;;;2.83;1.37;;;;;;;20.77;29.81;102366.98;1492034;95;21581;-50
2022/10/14 09:40:34;;;;;;;4.20;3.08;;;;;;;20.78;29.99;102359.47;1497616;95;21105;-52
2022/10/14 09:43:15;;;;;;;3.25;1.65;;;;;;;20.79;30.15;102363.81;1484806;96;21125;-50
2022/10/14 09:45:59;;;;;;;3.55;2.42;;;;;;;20.78;30.29;102363.89;1485158;96;21117;-50
2022/10/14 09:48:49;;;;;;;4.53;3.45;;;;;;;20.78;29.79;102368.72;1362533;105;21224;-50
2022/10/14 09:51:29;;;;;;;9.05;7.00;;;;;;;20.76;29.94;102367.92;1359902;104;21651;-50
2022/10/14 09:53:59;;;;;;;5.92;4.37;;;;;;;20.78;30.01;102364.76;1361634;105;21690;-55
2022/10/14 09:56:35;;;;;;;4.20;2.22;;;;;;;20.80;30.37;102362.91;1363397;104;21112;-51
2022/10/14 09:59:03;;;;;;;2.27;1.17;;;;;;;20.83;30.38;102365.45;1361546;104;21230;-50
2022/10/14 10:01:40;;;;;;;0.72;0.72;;;;;;;20.85;30.48;102371.55;1361517;105;21092;-52
2022/10/14 10:04:32;;;;;;;2.25;0.98;;;;;;;20.86;30.24;102367.97;1364053;104;21169;-52
2022/10/14 10:07:04;;;;;;;3.22;0.72;;;;;;;20.87;30.19;102369.70;1334439;105;21174;-50
2022/10/14 10:09:30;;;;;;;;;;;;;;;20.88;30.38;102366.13;1358756;104;21157;-50
2022/10/14 10:11:58;;;;;;;2.42;1.10;;;;;;;20.91;30.48;102363.38;1364280;103;20492;-50
2022/10/14 10:14:32;;;;;;;1.67;0.80;;;;;;;20.93;30.50;102358.87;1358358;102;21132;-50
2022/10/14 10:17:16;;;;;;;2.70;0.90;;;;;;;20.96;30.66;102361.39;1402518;99;21122;-50
2022/10/14 10:19:47;;;;;;;4.08;1.20;;;;;;;20.98;31.20;102362.19;1415214;101;21660;-50
2022/10/14 10:22:22;;;;;;;1.20;0.90;;;;;;;21.00;30.92;102361.66;1427815;99;21092;-50
2022/10/14 10:24:52;;;;;;;1.37;0.70;;;;;;;21.02;30.97;102363.82;1487889;93;21106;-50
2022/10/14 10:27:24;;;;;;;1.55;0.65;;;;;;;21.03;30.80;102360.27;1494188;95;21082;-50
2022/10/14 10:29:54;;;;;;;1.12;0.60;;;;;;;21.03;30.91;102353.66;1495413;95;21055;-51
2022/10/14 10:32:32;;;;;;;1.90;0.72;;;;;;;21.08;31.06;102351.28;1489867;95;21114;-49
2022/10/14 10:35:13;;;;;;;2.10;0.78;;;;;;;21.13;30.84;102354.59;1495596;95;21131;-49
2022/10/14 10:38:12;;;;;;;2.05;0.62;;;;;;;21.14;30.92;102347.94;1465647;97;21110;-50
2022/10/14 10:41:02;;;;;;;1.32;0.72;;;;;;;21.16;30.88;102345.22;1426439;100;21104;-50
2022/10/14 10:43:56;;;;;;;1.60;0.60;;;;;;;21.17;30.66;102348.24;1420603;97;21172;-56
2022/10/14 10:46:44;;;;;;;2.40;0.95;;;;;;;21.15;30.89;102342.16;1492503;94;21654;-52
2022/10/14 10:49:52;;;;;;;1.30;0.78;;;;;;;21.16;30.92;102345.22;1483448;94;21107;-50
2022/10/14 10:52:25;;;;;;;4.00;0.90;;;;;;;21.17;30.60;102335.01;1478730;96;21116;-51
2022/10/14 10:55:03;;;;;;;1.57;0.75;;;;;;;21.18;30.33;102346.88;1489113;94;21173;-50
2022/10/14 10:58:02;;;;;;;1.82;0.80;;;;;;;21.20;30.02;102340.19;1455250;97;21211;-49
2022/10/14 11:00:29;;;;;;;1.72;0.80;;;;;;;21.19;29.73;102341.10;1458367;97;21655;-52
2022/10/14 11:03:29;;;;;;;3.25;0.88;;;;;;;21.21;30.05;102339.25;1457996;97;21143;-56
2022/10/14 11:06:03;;;;;;;1.02;0.60;;;;;;;21.23;30.01;102334.75;1458021;97;21552;-53
2022/10/14 11:14:57;;;;;;;2.27;0.98;;;;;;;21.28;29.40;102329.70;1462305;95;21179;-51
2022/10/14 11:17:48;;;;;;;1.12;0.70;;;;;;;21.28;29.76;102331.47;1478288;95;21087;-53
2022/10/14 11:20:30;;;;;;;2.30;0.72;;;;;;;21.28;29.84;102327.50;1468844;95;21172;-51
2022/10/14 11:23:21;;;;;;;1.15;0.80;;;;;;;21.30;29.67;102328.30;1517182;91;21581;-52
2022/10/14 11:26:17;;;;;;;1.22;0.60;;;;;;;21.30;29.83;102330.95;1634759;85;21024;-52
2022/10/14 11:29:05;;;;;;;4.05;0.90;;;;;;;21.29;29.78;102326.59;1634544;85;21053;-49
2022/10/14 11:31:39;;;;;;;2.45;0.80;;;;;;;21.31;29.87;102324.74;1589852;89;21561;-51
2022/10/14 11:34:24;;;;;;;1.47;0.70;;;;;;;21.32;30.14;102325.13;1583930;85;21499;-50
2022/10/14 11:37:02;;;;;;;2.40;0.75;;;;;;;21.33;30.01;102325.54;1666394;85;21561;-50
2022/10/14 11:39:39;;;;;;;3.45;0.70;;;;;;;21.34;29.89;102328.57;1663032;85;21066;-51
2022/10/14 11:42:19;;;;;;;2.22;0.70;;;;;;;21.35;30.12;102319.72;1664049;85;21039;-50
2022/10/14 11:44:47;;;;;;;2.67;0.70;;;;;;;21.36;30.41;102322.75;1622622;88;21542;-51
2022/10/14 11:47:22;;;;;;;1.80;0.85;;;;;;;21.36;30.53;102320.09;1625398;88;21082;-51
2022/10/14 11:50:16;;;;;;;2.20;0.80;;;;;;;21.36;30.07;102323.62;1622087;88;21078;-50
2022/10/14 11:53:03;;;;;;;1.32;0.50;;;;;;;21.35;29.85;102315.74;1621653;88;21074;-51
2022/10/14 11:55:38;;;;;;;1.57;0.85;;;;;;;21.32;29.82;102318.05;1624766;87;21213;-50
2022/10/14 11:58:15;;;;;;;1.55;0.80;;;;;;;21.28;29.42;102318.23;1626696;87;21062;-50